Time;durP1;ratioP1;P1;durP2;ratioP2;P2;SDS_P1;SDS_P2;PMS_P1;PMS_P2;Temp;Humidity;BMP_temperature;BMP_pressure;BME280_temperature;BME280_humidity;BME280_pressure;Samples;Min_cycle;Max_cycle;Signal;HPM_P1;HPM_P2
2021/01/03 00:01:05;;;;;;;77.13;18.25;;;3.00;99.90;;;;;;4863307;28;20086;-85
2021/01/03 00:03:28;;;;;;;85.90;17.65;;;2.90;99.90;;;;;;4867586;28;20152;-85
2021/01/03 00:05:50;;;;;;;72.60;16.77;;;2.90;99.90;;;;;;4865811;28;20174;-83
2021/01/03 00:08:13;;;;;;;68.88;17.58;;;2.90;99.90;;;;;;4865799;28;20084;-82
2021/01/03 00:10:37;;;;;;;89.80;17.20;;;2.90;99.90;;;;;;4862377;28;20542;-85
2021/01/03 00:13:00;;;;;;;91.78;18.27;;;3.00;99.90;;;;;;4860629;28;20522;-84
2021/01/03 00:15:24;;;;;;;103.65;18.20;;;2.90;99.90;;;;;;4861780;28;20088;-85
2021/01/03 00:17:48;;;;;;;84.80;18.08;;;2.90;99.90;;;;;;4858843;28;20084;-86
2021/01/03 00:20:15;;;;;;;81.95;17.77;;;2.90;99.90;;;;;;4859151;28;20092;-84
2021/01/03 00:22:38;;;;;;;88.72;18.48;;;2.90;99.90;;;;;;4866213;28;20100;-84
2021/01/03 00:25:03;;;;;;;88.28;18.60;;;3.00;99.90;;;;;;4855475;28;20080;-83
2021/01/03 00:27:30;;;;;;;87.97;17.92;;;;;;;;;;4859745;28;20099;-86
2021/01/03 00:29:54;;;;;;;86.18;17.55;;;2.90;99.90;;;;;;4864175;28;20077;-81
2021/01/03 00:32:17;;;;;;;95.40;18.30;;;2.90;99.90;;;;;;4861548;28;20091;-83
2021/01/03 00:34:40;;;;;;;91.00;17.30;;;2.90;99.90;;;;;;4858685;28;20095;-84
2021/01/03 00:37:03;;;;;;;86.10;17.10;;;2.90;99.90;;;;;;4862452;28;20099;-85
2021/01/03 00:39:26;;;;;;;84.15;17.60;;;3.00;99.90;;;;;;4859204;28;20549;-84
2021/01/03 00:41:49;;;;;;;77.65;17.50;;;2.90;99.90;;;;;;4864295;28;20492;-83
2021/01/03 00:44:16;;;;;;;87.55;18.67;;;2.90;99.90;;;;;;4850244;28;20088;-84
2021/01/03 00:46:39;;;;;;;82.70;17.48;;;3.00;99.90;;;;;;4858186;28;20115;-85
2021/01/03 00:49:01;;;;;;;81.10;18.80;;;2.90;99.90;;;;;;4863556;28;20592;-84
2021/01/03 00:51:24;;;;;;;80.72;19.05;;;2.90;99.90;;;;;;4859031;28;20084;-85
2021/01/03 00:53:47;;;;;;;76.75;19.13;;;2.90;99.90;;;;;;4847303;28;20119;-85
2021/01/03 00:56:10;;;;;;;70.30;16.98;;;2.90;99.90;;;;;;4859285;28;20088;-85
2021/01/03 00:58:32;;;;;;;64.40;16.73;;;2.90;99.90;;;;;;4864580;28;20547;-85
2021/01/03 01:00:56;;;;;;;67.93;15.82;;;2.90;99.90;;;;;;4862598;28;20571;-85
2021/01/03 01:03:20;;;;;;;57.35;15.40;;;2.90;99.90;;;;;;4863062;28;20096;-84
2021/01/03 01:05:43;;;;;;;55.45;13.63;;;2.80;99.90;;;;;;4845786;28;20528;-85
2021/01/03 01:08:06;;;;;;;59.35;14.70;;;2.80;99.90;;;;;;4858380;28;20532;-84
2021/01/03 01:10:30;;;;;;;52.17;13.60;;;2.80;99.90;;;;;;4862559;28;20084;-85
2021/01/03 01:12:55;;;;;;;55.27;14.27;;;2.80;99.90;;;;;;4849598;28;20112;-85
2021/01/03 01:15:20;;;;;;;49.75;15.38;;;2.80;99.90;;;;;;4854629;28;20095;-84
2021/01/03 01:17:45;;;;;;;60.08;15.30;;;2.80;99.90;;;;;;4861257;28;20084;-84
2021/01/03 01:20:08;;;;;;;;;;;2.80;99.90;;;;;;4860465;28;20095;-84
2021/01/03 01:22:31;;;;;;;55.03;13.93;;;;;;;;;;4856954;28;20121;-85
2021/01/03 01:24:54;;;;;;;53.30;15.00;;;2.80;99.90;;;;;;4859707;28;20085;-83
2021/01/03 01:27:17;;;;;;;55.17;15.55;;;2.80;99.90;;;;;;4858668;28;20175;-84
2021/01/03 01:29:40;;;;;;;58.13;15.05;;;2.80;99.90;;;;;;4859724;28;20223;-84
2021/01/03 01:32:03;;;;;;;56.78;15.52;;;2.80;99.90;;;;;;4864995;28;20591;-84
2021/01/03 01:34:26;;;;;;;65.90;16.95;;;2.80;99.90;;;;;;4859654;28;20443;-84
2021/01/03 01:36:49;;;;;;;62.13;17.15;;;2.80;99.90;;;;;;4864774;28;20535;-85
2021/01/03 01:39:12;;;;;;;57.67;16.60;;;2.80;99.90;;;;;;4857662;28;20186;-83
2021/01/03 01:41:34;;;;;;;61.80;16.35;;;2.80;99.90;;;;;;4861567;28;20096;-83
2021/01/03 01:43:57;;;;;;;54.38;16.73;;;2.80;99.90;;;;;;4864104;28;20569;-83
2021/01/03 01:46:28;;;;;;;67.00;17.45;;;2.80;99.90;;;;;;4862480;28;20198;-86
2021/01/03 01:48:51;;;;;;;61.00;15.95;;;2.90;99.90;;;;;;4860172;28;20081;-84
2021/01/03 01:51:23;;;;;;;67.20;16.58;;;2.90;99.90;;;;;;4863430;28;20088;-85
2021/01/03 01:53:55;;;;;;;63.10;16.83;;;2.90;99.90;;;;;;4858867;28;20447;-85
2021/01/03 01:56:25;;;;;;;68.60;18.38;;;2.80;99.90;;;;;;4862571;28;20267;-83
2021/01/03 01:58:53;;;;;;;66.30;17.35;;;2.80;99.90;;;;;;4861178;28;20604;-83
2021/01/03 02:01:20;;;;;;;62.85;16.83;;;2.90;99.90;;;;;;4854993;28;20088;-84
2021/01/03 02:03:50;;;;;;;74.65;19.27;;;2.90;99.90;;;;;;4860443;28;20095;-82
2021/01/03 02:06:18;;;;;;;67.72;18.38;;;2.80;99.90;;;;;;4860425;28;20142;-81
2021/01/03 02:08:49;;;;;;;68.45;17.42;;;2.70;99.90;;;;;;4858149;28;20084;-83
2021/01/03 02:11:14;;;;;;;66.35;17.25;;;2.70;99.90;;;;;;4860187;28;20076;-84
2021/01/03 02:13:38;;;;;;;;;;;2.70;99.90;;;;;;4859494;28;20206;-85
2021/01/03 02:16:06;;;;;;;62.35;15.05;;;2.60;99.90;;;;;;4861825;28;19970;-85
2021/01/03 02:18:29;;;;;;;62.63;15.77;;;2.60;99.90;;;;;;4860619;28;20090;-82
2021/01/03 02:21:12;;;;;;;70.43;17.50;;;2.60;99.90;;;;;;4863490;28;20091;-83
2021/01/03 02:23:45;;;;;;;59.63;16.25;;;2.60;99.90;;;;;;4860314;28;20096;-84
2021/01/03 02:26:10;;;;;;;68.78;17.15;;;2.70;99.90;;;;;;4854145;28;20084;-83
2021/01/03 02:28:39;;;;;;;63.20;17.05;;;2.80;99.90;;;;;;4861362;28;20450;-84
2021/01/03 02:31:03;;;;;;;64.35;17.63;;;2.80;99.90;;;;;;4858078;28;20586;-82
2021/01/03 02:33:32;;;;;;;69.05;17.77;;;2.80;99.90;;;;;;4837828;28;20132;-84
2021/01/03 02:36:00;;;;;;;62.33;18.02;;;2.80;99.90;;;;;;4848413;28;20167;-85
2021/01/03 02:38:27;;;;;;;65.63;17.60;;;2.80;99.90;;;;;;4862002;28;20080;-82
2021/01/03 02:40:50;;;;;;;72.13;19.77;;;2.80;99.90;;;;;;4859461;28;20134;-84
2021/01/03 02:43:13;;;;;;;65.95;18.15;;;2.80;99.90;;;;;;4860369;28;20086;-84
2021/01/03 02:45:36;;;;;;;60.60;20.02;;;2.80;99.90;;;;;;4858043;28;20101;-84
2021/01/03 02:48:03;;;;;;;63.70;18.27;;;2.80;99.90;;;;;;4863157;28;20096;-84
2021/01/03 02:50:27;;;;;;;66.57;17.25;;;2.70;99.90;;;;;;4857489;28;20088;-84
2021/01/03 02:52:49;;;;;;;80.53;21.02;;;2.70;99.90;;;;;;4859686;28;20557;-84
2021/01/03 02:55:14;;;;;;;78.45;19.33;;;2.70;99.90;;;;;;4861618;28;20084;-83
2021/01/03 02:57:37;;;;;;;63.55;18.60;;;2.60;99.90;;;;;;4858866;28;20130;-84
2021/01/03 03:00:01;;;;;;;63.38;18.23;;;2.60;99.90;;;;;;4857719;28;20085;-85
2021/01/03 03:02:24;;;;;;;79.65;18.75;;;2.50;99.90;;;;;;4860147;28;20105;-83
2021/01/03 03:04:47;;;;;;;67.28;19.02;;;2.50;99.90;;;;;;4859965;28;20084;-82
2021/01/03 03:07:10;;;;;;;69.28;17.48;;;2.40;99.90;;;;;;4861411;28;21076;-85
2021/01/03 03:09:32;;;;;;;69.80;17.63;;;2.30;99.90;;;;;;4852883;28;20168;-84
2021/01/03 03:11:55;;;;;;;70.13;17.88;;;1.60;99.90;;;;;;4853243;28;20183;-84
2021/01/03 03:14:18;;;;;;;58.33;17.48;;;2.10;99.90;;;;;;4861744;28;20531;-83
2021/01/03 03:16:42;;;;;;;67.68;17.50;;;2.00;99.90;;;;;;4856542;28;20232;-84
2021/01/03 03:19:05;;;;;;;51.28;15.15;;;1.90;99.90;;;;;;4856847;28;20107;-85
2021/01/03 03:21:28;;;;;;;57.15;17.88;;;;;;;;;;4856445;28;20089;-84
2021/01/03 03:23:51;;;;;;;52.00;17.08;;;1.80;99.90;;;;;;4858549;28;20112;-85
2021/01/03 03:26:14;;;;;;;46.22;14.52;;;1.60;99.90;;;;;;4864041;28;20145;-85
2021/01/03 03:28:36;;;;;;;50.92;15.25;;;1.50;99.90;;;;;;4856574;28;20516;-83
2021/01/03 03:30:59;;;;;;;55.15;15.50;;;1.50;99.90;;;;;;4860693;28;20187;-84
2021/01/03 03:33:23;;;;;;;44.47;15.40;;;;;;;;;;4858625;28;20109;-84
2021/01/03 03:35:46;;;;;;;50.10;15.25;;;1.40;99.90;;;;;;4841106;28;20550;-85
2021/01/03 03:38:08;;;;;;;51.22;15.15;;;1.50;99.90;;;;;;4862460;28;20603;-84
2021/01/03 03:40:31;;;;;;;49.35;13.93;;;1.50;99.90;;;;;;4851564;28;20098;-83
2021/01/03 03:42:55;;;;;;;43.67;13.23;;;1.50;99.90;;;;;;4862746;28;20096;-85
2021/01/03 03:45:19;;;;;;;58.35;15.90;;;1.50;99.90;;;;;;4861834;28;23639;-85
2021/01/03 03:47:43;;;;;;;46.17;14.75;;;1.60;99.90;;;;;;4859427;28;20514;-84
2021/01/03 03:50:08;;;;;;;50.95;14.55;;;1.60;99.90;;;;;;4864017;28;20172;-84
2021/01/03 03:52:31;;;;;;;61.63;14.60;;;1.60;99.90;;;;;;4860708;28;20113;-82
2021/01/03 03:54:54;;;;;;;54.38;14.52;;;1.70;99.90;;;;;;4860172;28;20160;-85
2021/01/03 03:57:17;;;;;;;70.10;14.70;;;1.80;99.90;;;;;;4857731;28;20492;-84
2021/01/03 03:59:40;;;;;;;65.55;15.38;;;1.80;99.90;;;;;;4860145;28;20526;-82
2021/01/03 04:02:05;;;;;;;57.95;14.63;;;1.70;99.90;;;;;;4863186;28;20177;-85
2021/01/03 04:04:28;;;;;;;67.40;16.55;;;1.70;99.90;;;;;;4862140;28;20104;-83
2021/01/03 04:06:52;;;;;;;52.22;14.73;;;;;;;;;;4859039;28;20103;-84
2021/01/03 04:09:15;;;;;;;69.88;16.40;;;1.80;99.90;;;;;;4862782;28;20112;-84
2021/01/03 04:11:40;;;;;;;60.33;15.75;;;1.80;99.90;;;;;;4862399;28;20102;-86
2021/01/03 04:14:03;;;;;;;66.17;15.67;;;1.80;99.90;;;;;;4862096;28;20086;-85
2021/01/03 04:16:26;;;;;;;59.28;16.40;;;1.80;99.90;;;;;;4863789;28;20109;-85
2021/01/03 04:18:48;;;;;;;62.60;15.90;;;1.90;99.90;;;;;;4863057;28;20128;-85
2021/01/03 04:21:13;;;;;;;56.83;14.98;;;;;;;;;;4861976;28;20095;-85
2021/01/03 04:23:36;;;;;;;63.50;17.52;;;1.90;99.90;;;;;;4866093;28;20089;-84
2021/01/03 04:25:59;;;;;;;60.33;16.45;;;1.80;99.90;;;;;;4847085;28;20089;-85
2021/01/03 04:28:22;;;;;;;59.67;16.00;;;1.80;99.90;;;;;;4859150;28;20084;-84
2021/01/03 04:30:45;;;;;;;73.90;16.83;;;1.90;99.90;;;;;;4863946;28;20105;-82
2021/01/03 04:33:07;;;;;;;68.13;18.67;;;1.90;99.90;;;;;;4865036;28;20569;-83
2021/01/03 04:35:30;;;;;;;74.13;16.50;;;1.90;99.90;;;;;;4856599;28;20464;-85
2021/01/03 04:37:54;;;;;;;72.47;15.95;;;2.00;99.90;;;;;;4863125;28;20088;-85
2021/01/03 04:40:22;;;;;;;86.47;16.17;;;2.00;99.90;;;;;;4862032;28;20226;-82
2021/01/03 04:42:51;;;;;;;49.63;14.82;;;2.00;99.90;;;;;;4862957;28;20108;-84
2021/01/03 04:45:20;;;;;;;62.40;14.90;;;2.10;99.90;;;;;;4859566;28;20122;-84
2021/01/03 04:47:52;;;;;;;60.75;15.80;;;2.00;99.90;;;;;;4846674;28;20087;-85
2021/01/03 04:50:31;;;;;;;77.70;16.25;;;2.10;99.90;;;;;;4860372;28;20553;-84
2021/01/03 04:53:17;;;;;;;75.22;16.77;;;2.10;99.90;;;;;;4864045;28;20516;-84
2021/01/03 04:55:47;;;;;;;67.20;16.65;;;2.10;99.90;;;;;;4860893;28;20082;-85
2021/01/03 04:58:24;;;;;;;59.08;15.93;;;2.10;99.90;;;;;;4863030;28;20092;-82
2021/01/03 05:00:51;;;;;;;72.78;16.83;;;2.10;99.90;;;;;;4861424;28;20101;-83
2021/01/03 05:03:56;;;;;;;66.78;17.73;;;2.10;99.90;;;;;;4846687;28;20164;-84
2021/01/03 05:06:24;;;;;;;65.00;16.92;;;2.10;99.90;;;;;;4860188;28;20208;-84
2021/01/03 05:08:49;;;;;;;67.22;17.67;;;2.10;99.90;;;;;;4860554;28;20150;-83
2021/01/03 05:11:17;;;;;;;67.43;17.02;;;2.00;99.90;;;;;;4862961;28;20090;-85
2021/01/03 05:14:06;;;;;;;59.25;16.02;;;2.00;99.90;;;;;;4863367;28;20106;-85
2021/01/03 05:16:29;;;;;;;73.03;17.35;;;1.90;99.90;;;;;;4863346;28;20101;-85
2021/01/03 05:18:54;;;;;;;60.40;15.48;;;1.90;99.90;;;;;;4855127;28;20116;-82
2021/01/03 05:21:17;;;;;;;53.80;15.95;;;;;;;;;;4848963;28;20204;-85
2021/01/03 05:23:56;;;;;;;54.47;15.25;;;1.80;99.90;;;;;;4861069;28;20555;-85
2021/01/03 05:26:30;;;;;;;72.03;16.05;;;1.80;99.90;;;;;;4852398;28;20203;-83
2021/01/03 05:28:56;;;;;;;54.95;15.27;;;1.90;99.90;;;;;;4863049;28;20596;-83
2021/01/03 05:31:21;;;;;;;52.25;14.35;;;1.90;99.90;;;;;;4859827;28;20088;-84
2021/01/03 05:33:52;;;;;;;54.25;15.30;;;;;;;;;;4861895;28;20519;-82
2021/01/03 05:36:44;;;;;;;45.00;13.80;;;1.90;99.90;;;;;;4862574;28;20090;-82
2021/01/03 05:39:28;;;;;;;55.58;14.15;;;1.90;99.90;;;;;;4854286;28;20494;-83
2021/01/03 05:42:01;;;;;;;48.97;15.13;;;1.90;99.90;;;;;;4862374;28;20174;-82
2021/01/03 05:44:27;;;;;;;47.58;14.65;;;1.90;99.90;;;;;;4861116;28;20092;-84
2021/01/03 05:46:54;;;;;;;55.47;14.85;;;1.90;99.90;;;;;;4859680;28;20138;-84
2021/01/03 05:49:26;;;;;;;46.47;14.85;;;1.90;99.90;;;;;;4865001;28;20145;-85
2021/01/03 05:51:58;;;;;;;44.65;14.20;;;1.90;99.90;;;;;;4859798;28;20080;-82
2021/01/03 05:54:24;;;;;;;52.40;14.43;;;1.90;99.90;;;;;;4863330;28;20087;-84
2021/01/03 05:56:49;;;;;;;49.90;14.63;;;2.00;99.90;;;;;;4846926;28;20099;-84
2021/01/03 05:59:28;;;;;;;52.15;13.88;;;2.00;99.90;;;;;;4851442;28;20095;-85
2021/01/03 06:02:06;;;;;;;42.95;13.80;;;2.00;99.90;;;;;;4859689;28;20174;-85
2021/01/03 06:04:28;;;;;;;45.22;14.23;;;2.00;99.90;;;;;;4856580;28;20149;-82
2021/01/03 06:07:06;;;;;;;46.10;13.60;;;2.00;99.90;;;;;;4861449;28;20094;-84
2021/01/03 06:09:36;;;;;;;59.72;14.07;;;2.00;99.90;;;;;;4861631;28;20170;-82
2021/01/03 06:12:01;;;;;;;35.78;12.68;;;2.00;99.90;;;;;;4858291;28;20167;-83
2021/01/03 06:14:28;;;;;;;45.03;14.40;;;2.10;99.90;;;;;;4863818;28;20100;-82
2021/01/03 06:16:51;;;;;;;48.53;14.77;;;2.20;99.90;;;;;;4861222;28;20103;-85
2021/01/03 06:19:28;;;;;;;47.85;15.77;;;2.20;99.90;;;;;;4861934;28;20555;-83
2021/01/03 06:21:54;;;;;;;69.75;17.33;;;2.30;99.90;;;;;;4855657;28;20176;-84
2021/01/03 06:24:19;;;;;;;46.22;11.85;;;2.30;99.90;;;;;;4861633;28;20168;-83
2021/01/03 06:26:46;;;;;;;44.97;11.02;;;2.30;99.90;;;;;;4857148;28;20105;-85
2021/01/03 06:29:27;;;;;;;64.22;16.35;;;2.20;99.90;;;;;;4862187;28;20095;-85
2021/01/03 06:32:15;;;;;;;63.80;17.38;;;2.10;99.90;;;;;;4858873;28;20079;-83
2021/01/03 06:34:42;;;;;;;64.40;17.13;;;2.00;99.90;;;;;;4822840;28;20543;-85
2021/01/03 06:37:12;;;;;;;56.63;16.75;;;2.00;99.90;;;;;;4862317;28;20167;-84
2021/01/03 06:39:47;;;;;;;63.97;17.85;;;1.90;99.90;;;;;;4859636;28;20084;-82
2021/01/03 06:42:54;;;;;;;71.30;16.90;;;1.80;99.90;;;;;;4843522;28;20592;-83
2021/01/03 06:45:59;;;;;;;68.00;18.55;;;2.20;99.90;;;;;;4857128;28;20105;-84
2021/01/03 06:48:57;;;;;;;65.45;17.65;;;1.80;99.90;;;;;;4848372;28;20533;-84
2021/01/03 06:52:01;;;;;;;56.45;16.70;;;1.70;99.90;;;;;;4816423;28;20100;-86
2021/01/03 06:54:57;;;;;;;60.40;17.05;;;1.80;99.90;;;;;;4776768;28;20186;-83
2021/01/03 06:57:53;;;;;;;72.97;20.73;;;1.70;99.90;;;;;;4857378;28;20179;-84
2021/01/03 07:00:22;;;;;;;55.83;17.08;;;1.70;99.90;;;;;;4856237;28;20465;-84
2021/01/03 07:02:49;;;;;;;70.53;18.23;;;1.70;99.90;;;;;;4864143;28;20085;-83
2021/01/03 07:05:13;;;;;;;63.50;17.58;;;1.80;99.90;;;;;;4860060;28;20183;-83
2021/01/03 07:07:38;;;;;;;71.77;18.53;;;1.80;99.90;;;;;;4858012;28;20095;-83
2021/01/03 07:10:05;;;;;;;64.25;17.80;;;1.80;99.90;;;;;;4851481;28;20090;-84
2021/01/03 07:12:37;;;;;;;52.67;15.98;;;1.90;99.90;;;;;;4815743;28;20414;-86
2021/01/03 07:15:00;;;;;;;51.28;17.25;;;1.80;99.90;;;;;;4861883;28;20169;-83
2021/01/03 07:17:41;;;;;;;54.67;16.95;;;;;;;;;;4860138;28;20204;-86
2021/01/03 07:20:06;;;;;;;65.13;17.58;;;1.80;99.90;;;;;;4832559;28;20125;-82
2021/01/03 07:22:39;;;;;;;64.25;16.80;;;1.80;99.90;;;;;;4862709;28;20174;-84
2021/01/03 07:25:15;;;;;;;56.72;15.73;;;1.80;99.90;;;;;;4863425;28;20343;-84
2021/01/03 07:27:40;;;;;;;45.03;15.35;;;1.70;99.90;;;;;;4858883;28;20092;-82
2021/01/03 07:30:31;;;;;;;58.90;15.88;;;1.70;99.90;;;;;;4862537;28;20205;-84
2021/01/03 07:33:05;;;;;;;50.55;15.80;;;1.80;99.90;;;;;;4859848;28;20084;-84
2021/01/03 07:35:38;;;;;;;61.58;17.15;;;1.70;99.90;;;;;;4869857;28;20087;-84
2021/01/03 07:38:28;;;;;;;58.05;16.52;;;1.80;99.90;;;;;;4863478;28;20184;-83
2021/01/03 07:40:55;;;;;;;61.95;15.27;;;1.80;99.90;;;;;;4862010;28;20541;-83
2021/01/03 07:43:18;;;;;;;59.83;16.02;;;1.80;99.90;;;;;;4864783;28;20111;-83
2021/01/03 07:45:44;;;;;;;43.85;14.35;;;1.70;99.90;;;;;;4857317;28;20090;-82
2021/01/03 07:48:33;;;;;;;49.05;13.60;;;1.70;99.90;;;;;;4860360;28;20098;-84
2021/01/03 07:50:55;;;;;;;47.60;13.40;;;;;;;;;;4861898;28;20451;-83
2021/01/03 07:53:27;;;;;;;39.53;14.05;;;1.80;99.90;;;;;;4866415;28;20185;-84
2021/01/03 07:55:49;;;;;;;68.18;17.45;;;1.70;99.90;;;;;;4859399;28;20122;-84
2021/01/03 07:58:16;;;;;;;40.60;14.43;;;1.70;99.90;;;;;;4854493;28;20244;-84
2021/01/03 08:00:42;;;;;;;37.25;13.35;;;1.70;99.90;;;;;;4863305;28;20098;-83
2021/01/03 08:03:07;;;;;;;47.35;13.90;;;1.70;99.90;;;;;;4864867;28;20904;-84
2021/01/03 08:05:30;;;;;;;43.88;14.07;;;1.70;99.90;;;;;;4864143;28;20182;-84
2021/01/03 08:08:03;;;;;;;44.55;14.57;;;1.70;99.90;;;;;;4862369;28;20098;-83
2021/01/03 08:10:27;;;;;;;34.00;13.20;;;;;;;;;;4852223;28;20533;-84
2021/01/03 08:12:59;;;;;;;32.40;10.63;;;1.80;99.90;;;;;;4861993;28;20096;-82
2021/01/03 08:15:26;;;;;;;39.38;12.10;;;1.90;99.90;;;;;;4852477;28;20097;-85
2021/01/03 08:17:49;;;;;;;44.47;13.63;;;1.90;99.90;;;;;;4851952;28;20601;-82
2021/01/03 08:20:19;;;;;;;34.72;10.27;;;1.90;99.90;;;;;;4860695;28;20086;-85
2021/01/03 08:22:42;;;;;;;32.70;10.23;;;2.00;99.90;;;;;;4860496;28;20088;-86
2021/01/03 08:25:06;;;;;;;37.40;11.43;;;2.00;99.90;;;;;;4860595;28;20127;-82
2021/01/03 08:27:40;;;;;;;37.55;11.38;;;2.10;99.90;;;;;;4853685;28;20112;-84
2021/01/03 08:30:07;;;;;;;30.98;10.15;;;2.20;99.90;;;;;;4863415;28;20087;-85
2021/01/03 08:32:32;;;;;;;33.40;10.25;;;2.30;99.90;;;;;;4863289;28;20096;-83
2021/01/03 08:34:55;;;;;;;;;;;;;;;;;;4861568;28;20148;-84
2021/01/03 08:37:20;;;;;;;26.38;9.73;;;2.50;99.90;;;;;;4865558;28;19981;-83
2021/01/03 08:39:44;;;;;;;;;;;2.50;99.90;;;;;;4864735;28;20112;-88
2021/01/03 08:42:11;;;;;;;25.83;9.30;;;2.60;99.90;;;;;;4862794;28;20028;-84
2021/01/03 08:44:37;;;;;;;29.70;10.18;;;2.60;99.90;;;;;;4864254;28;20094;-84
2021/01/03 08:47:03;;;;;;;42.08;12.65;;;2.60;99.90;;;;;;4865180;28;20092;-84
2021/01/03 08:49:25;;;;;;;28.38;11.10;;;2.70;99.90;;;;;;4862349;28;20100;-83
2021/01/03 08:51:48;;;;;;;19.10;7.07;;;2.70;99.90;;;;;;4864179;28;20531;-84
2021/01/03 08:54:13;;;;;;;21.92;8.65;;;2.80;99.90;;;;;;4862905;28;20114;-83
2021/01/03 08:56:40;;;;;;;24.27;10.07;;;2.80;99.90;;;;;;4860815;28;20120;-83
2021/01/03 08:59:03;;;;;;;24.38;8.77;;;2.20;99.90;;;;;;4863054;28;20637;-84
2021/01/03 09:01:36;;;;;;;26.60;9.77;;;2.80;99.90;;;;;;4841605;28;20112;-83
2021/01/03 09:04:37;;;;;;;26.42;10.45;;;2.80;99.90;;;;;;4801722;28;20114;-84
2021/01/03 09:07:31;;;;;;;25.77;9.55;;;2.80;99.90;;;;;;4800749;28;20605;-84
2021/01/03 09:10:30;;;;;;;28.77;9.90;;;2.90;99.90;;;;;;4796503;28;20095;-83
2021/01/03 09:13:43;;;;;;;26.27;10.90;;;2.90;99.90;;;;;;4813087;28;20108;-86
2021/01/03 09:16:51;;;;;;;20.48;7.80;;;2.80;99.90;;;;;;4813947;28;20444;-85
2021/01/03 09:19:44;;;;;;;20.60;8.38;;;2.90;99.90;;;;;;4819499;28;20540;-82
2021/01/03 09:22:26;;;;;;;32.85;10.60;;;2.90;99.90;;;;;;4800373;28;21938;-86
2021/01/03 09:25:22;;;;;;;26.75;9.88;;;2.90;99.90;;;;;;4806048;28;20147;-85
2021/01/03 09:28:08;;;;;;;44.10;12.98;;;2.80;99.90;;;;;;4796070;28;20119;-83
2021/01/03 09:31:02;;;;;;;19.80;9.00;;;2.80;99.90;;;;;;4818064;28;20092;-84
2021/01/03 09:33:47;;;;;;;24.30;9.73;;;2.80;99.90;;;;;;4805467;28;20510;-85
2021/01/03 09:37:14;;;;;;;26.40;9.82;;;2.80;99.90;;;;;;4811763;28;20093;-85
2021/01/03 09:43:15;;;;;;;18.65;8.38;;;2.60;99.90;;;;;;4798500;28;20094;-85
2021/01/03 09:46:19;;;;;;;23.17;8.27;;;2.70;99.90;;;;;;4821111;28;20091;-85
2021/01/03 09:49:10;;;;;;;19.35;7.88;;;2.60;99.90;;;;;;4808268;28;20177;-84
2021/01/03 09:52:10;;;;;;;12.68;5.57;;;2.70;99.90;;;;;;4805869;28;20087;-85
2021/01/03 09:58:15;;;;;;;12.32;5.18;;;2.70;99.90;;;;;;4818270;28;20142;-86
2021/01/03 10:01:17;;;;;;;20.77;6.55;;;2.80;99.90;;;;;;4798888;28;20098;-84
2021/01/03 10:07:40;;;;;;;18.13;5.88;;;2.90;99.90;;;;;;4803005;28;20085;-85
2021/01/03 10:20:55;;;;;;;15.32;5.55;;;3.10;99.90;;;;;;4855565;27;24492;-86
2021/01/03 10:33:04;;;;;;;20.80;8.52;;;3.00;99.90;;;;;;4837996;28;20119;-87
2021/01/03 10:35:36;;;;;;;17.65;7.00;;;3.00;99.90;;;;;;4833581;28;20085;-85
2021/01/03 10:47:12;;;;;;;12.48;4.63;;;2.70;99.90;;;;;;4879691;28;20098;-84
2021/01/03 10:49:34;;;;;;;19.23;7.93;;;2.70;99.90;;;;;;4898574;28;20553;-83
2021/01/03 10:51:57;;;;;;;17.27;7.70;;;;;;;;;;4909510;28;20185;-83
2021/01/03 10:54:23;;;;;;;18.95;7.30;;;2.60;99.90;;;;;;4905486;28;20172;-84
2021/01/03 10:56:47;;;;;;;;;;;2.60;99.90;;;;;;4899007;28;20096;-84
2021/01/03 10:59:10;;;;;;;18.77;6.82;;;2.60;99.90;;;;;;4903751;28;20051;-85
2021/01/03 11:01:33;;;;;;;16.90;6.30;;;2.70;99.90;;;;;;4902494;28;20197;-83
2021/01/03 11:03:56;;;;;;;21.83;7.20;;;2.70;99.90;;;;;;4905952;28;20091;-83
2021/01/03 11:06:19;;;;;;;18.60;6.07;;;2.80;99.90;;;;;;4904854;28;20505;-84
2021/01/03 11:08:45;;;;;;;15.52;6.15;;;2.80;99.90;;;;;;4910705;28;20343;-83
2021/01/03 11:11:09;;;;;;;15.50;6.15;;;;;;;;;;4905409;28;20087;-84
2021/01/03 11:13:32;;;;;;;17.50;5.93;;;2.80;99.90;;;;;;4907448;28;20113;-85
2021/01/03 11:15:55;;;;;;;11.93;5.35;;;2.80;99.90;;;;;;4907947;28;20161;-83
2021/01/03 11:18:18;;;;;;;9.95;4.70;;;2.90;99.90;;;;;;4905543;28;20646;-84
2021/01/03 11:20:40;;;;;;;11.05;5.10;;;2.90;99.90;;;;;;4907912;28;20116;-85
2021/01/03 11:23:03;;;;;;;11.93;4.20;;;3.00;99.90;;;;;;4906888;28;20182;-84
2021/01/03 11:25:26;;;;;;;22.98;5.70;;;3.00;99.90;;;;;;4908503;28;20516;-82
2021/01/03 11:27:50;;;;;;;8.38;3.50;;;3.00;99.90;;;;;;4910596;28;20540;-84
2021/01/03 11:30:14;;;;;;;10.38;4.68;;;3.00;99.90;;;;;;4901843;28;20179;-84
2021/01/03 11:32:37;;;;;;;13.30;5.05;;;3.10;99.90;;;;;;4892342;28;21044;-82
2021/01/03 11:35:00;;;;;;;8.18;3.05;;;3.10;99.90;;;;;;4893601;28;20452;-86
2021/01/03 11:37:23;;;;;;;9.77;4.10;;;;;;;;;;4891976;28;20164;-85
2021/01/03 11:39:48;;;;;;;14.00;4.40;;;3.00;99.90;;;;;;4897784;28;20495;-86
2021/01/03 11:42:14;;;;;;;9.68;3.58;;;3.10;99.90;;;;;;4898321;28;20527;-85
2021/01/03 11:44:40;;;;;;;14.93;5.55;;;3.00;99.90;;;;;;4893634;28;20108;-82
2021/01/03 11:47:06;;;;;;;12.07;3.80;;;3.10;99.90;;;;;;4893891;28;20165;-87
2021/01/03 11:49:32;;;;;;;12.07;3.67;;;3.00;99.90;;;;;;4884408;28;20118;-85
2021/01/03 11:51:54;;;;;;;11.80;4.28;;;3.10;99.90;;;;;;4891779;28;22539;-84
2021/01/03 11:54:18;;;;;;;7.03;2.88;;;3.00;99.90;;;;;;4893988;28;20544;-83
2021/01/03 11:56:41;;;;;;;12.85;4.13;;;3.00;99.90;;;;;;4890875;28;20604;-81
2021/01/03 11:59:04;;;;;;;16.75;4.40;;;3.00;99.90;;;;;;4893639;28;20117;-83
2021/01/03 12:01:28;;;;;;;8.90;3.42;;;3.00;99.90;;;;;;4894261;28;20542;-85
2021/01/03 12:03:51;;;;;;;12.90;4.38;;;3.00;99.90;;;;;;4893579;28;20445;-84
2021/01/03 12:06:16;;;;;;;12.73;4.75;;;3.00;99.90;;;;;;4884692;28;20086;-84
2021/01/03 12:08:38;;;;;;;22.85;6.00;;;3.00;99.90;;;;;;4892148;28;20222;-83
2021/01/03 12:11:01;;;;;;;8.25;3.25;;;3.10;99.90;;;;;;4893253;28;20086;-83
2021/01/03 12:13:24;;;;;;;8.13;3.80;;;3.00;99.90;;;;;;4892360;28;20090;-82
2021/01/03 12:15:47;;;;;;;14.60;4.90;;;;;;;;;;4885313;28;20100;-85
2021/01/03 12:18:11;;;;;;;19.55;6.25;;;;;;;;;;4891936;28;20183;-85
2021/01/03 12:20:35;;;;;;;23.00;6.38;;;3.10;99.90;;;;;;4893787;28;20163;-88
2021/01/03 12:22:57;;;;;;;21.08;5.82;;;3.10;99.90;;;;;;4895194;28;20446;-83
2021/01/03 12:25:21;;;;;;;22.00;6.82;;;3.20;99.90;;;;;;4893092;28;20096;-85
2021/01/03 12:27:43;;;;;;;17.95;6.72;;;;;;;;;;4892719;28;20189;-83
2021/01/03 12:30:08;;;;;;;17.67;6.65;;;3.20;99.90;;;;;;4893793;28;20096;-85
2021/01/03 12:32:30;;;;;;;17.33;5.88;;;3.20;99.90;;;;;;4890342;28;20090;-85
2021/01/03 12:34:54;;;;;;;22.17;6.30;;;3.30;99.90;;;;;;4899490;28;20186;-85
2021/01/03 12:37:19;;;;;;;17.90;6.00;;;3.30;99.90;;;;;;4898359;28;20154;-83
2021/01/03 12:39:42;;;;;;;15.90;6.22;;;;;;;;;;4891756;28;20123;-84
2021/01/03 12:42:06;;;;;;;22.50;7.30;;;3.40;99.90;;;;;;4896843;28;20088;-85
2021/01/03 12:44:29;;;;;;;18.17;6.38;;;3.40;99.90;;;;;;4892928;28;20176;-82
2021/01/03 12:46:51;;;;;;;19.77;6.63;;;3.40;99.90;;;;;;4891232;28;20471;-83
2021/01/03 12:49:14;;;;;;;26.90;7.88;;;3.40;99.90;;;;;;4894935;28;20088;-82
2021/01/03 12:51:38;;;;;;;28.10;7.90;;;;;;;;;;4893917;28;20128;-85
2021/01/03 12:54:01;;;;;;;19.80;7.40;;;3.40;99.90;;;;;;4893349;28;20133;-86
2021/01/03 12:56:26;;;;;;;20.95;6.75;;;3.50;99.90;;;;;;4893125;28;20164;-84
2021/01/03 12:58:49;;;;;;;29.35;6.43;;;3.50;99.90;;;;;;4904589;28;20088;-85
2021/01/03 13:01:12;;;;;;;22.85;7.45;;;3.50;99.90;;;;;;4889943;28;20502;-84
2021/01/03 13:03:35;;;;;;;19.30;6.13;;;3.50;99.90;;;;;;4895190;28;20178;-84
2021/01/03 13:05:58;;;;;;;31.02;8.82;;;3.50;99.90;;;;;;4891599;28;20427;-85
2021/01/03 13:08:22;;;;;;;20.58;7.72;;;;;;;;;;4893701;28;20157;-86
2021/01/03 13:10:44;;;;;;;20.38;6.13;;;3.50;99.90;;;;;;4890921;28;20178;-84
2021/01/03 13:13:07;;;;;;;26.23;8.30;;;3.60;99.90;;;;;;4896823;28;20168;-85
2021/01/03 13:15:30;;;;;;;21.77;8.57;;;3.60;99.90;;;;;;4889493;28;20119;-83
2021/01/03 13:17:53;;;;;;;28.10;8.15;;;3.60;99.90;;;;;;4892817;28;20088;-86
2021/01/03 13:20:16;;;;;;;26.05;9.00;;;3.60;99.90;;;;;;4888049;28;20107;-84
2021/01/03 13:22:39;;;;;;;28.80;8.52;;;3.60;99.90;;;;;;4892132;28;20152;-85
2021/01/03 13:25:05;;;;;;;25.20;6.68;;;3.60;99.90;;;;;;4891804;28;20120;-84
2021/01/03 13:27:28;;;;;;;27.70;8.52;;;3.60;99.90;;;;;;4901871;28;20098;-86
2021/01/03 13:29:51;;;;;;;26.27;8.02;;;;;;;;;;4893820;28;20170;-83
2021/01/03 13:32:15;;;;;;;21.88;6.47;;;3.70;99.90;;;;;;4889590;28;20096;-85
2021/01/03 13:34:38;;;;;;;18.13;6.00;;;3.60;99.90;;;;;;4897065;28;20126;-85